createdAt,value
2022-10-31T00:00:10.298Z,12.20
2022-10-31T00:01:24.102Z,12.20
2022-10-31T00:02:26.163Z,12.20
2022-10-31T00:03:28.286Z,12.20
2022-10-31T00:04:30.172Z,12.20
2022-10-31T00:05:32.167Z,12.20
2022-10-31T00:06:34.037Z,12.20
2022-10-31T00:07:35.986Z,12.20
2022-10-31T00:08:38.210Z,12.30
2022-10-31T00:09:40.319Z,12.30
2022-10-31T00:10:43.545Z,12.20
2022-10-31T00:11:45.512Z,12.20
2022-10-31T00:12:47.422Z,12.30
2022-10-31T00:13:49.453Z,12.30
2022-10-31T00:14:51.196Z,12.30
2022-10-31T00:15:53.190Z,12.20
2022-10-31T00:16:55.270Z,12.20
2022-10-31T00:17:57.594Z,12.20
2022-10-31T00:19:03.645Z,12.20
2022-10-31T00:20:06.081Z,12.30
2022-10-31T00:21:08.019Z,12.20
2022-10-31T00:22:09.894Z,12.30
2022-10-31T00:23:12.662Z,12.20
2022-10-31T00:24:14.657Z,12.30
2022-10-31T00:25:16.651Z,12.20
2022-10-31T00:26:19.342Z,12.30
2022-10-31T00:27:21.271Z,12.30
2022-10-31T00:28:23.352Z,12.20
2022-10-31T00:29:25.328Z,12.20
2022-10-31T00:30:27.382Z,12.20
2022-10-31T00:31:29.759Z,12.20
2022-10-31T00:32:31.732Z,12.20
2022-10-31T00:33:38.669Z,12.20
2022-10-31T00:34:40.597Z,12.20
2022-10-31T00:35:43.042Z,12.20
2022-10-31T00:36:45.194Z,12.20
2022-10-31T00:37:48.950Z,12.20
2022-10-31T00:38:51.573Z,12.20
2022-10-31T00:39:53.523Z,12.20
2022-10-31T00:40:56.278Z,12.20
2022-10-31T00:41:58.297Z,12.20
2022-10-31T00:43:00.946Z,12.20
2022-10-31T00:44:03.212Z,12.10
2022-10-31T00:45:06.703Z,12.20
2022-10-31T00:46:08.617Z,12.10
2022-10-31T00:47:10.595Z,12.10
2022-10-31T00:48:14.181Z,12.10
2022-10-31T00:49:16.264Z,12.10
2022-10-31T00:50:18.485Z,12.10
2022-10-31T00:51:20.520Z,12.10
2022-10-31T00:52:22.526Z,12.10
2022-10-31T00:53:24.558Z,12.10
2022-10-31T00:54:26.462Z,12.10
2022-10-31T00:55:28.504Z,12.10
2022-10-31T00:56:30.391Z,12.10
2022-10-31T00:57:33.369Z,12.10
2022-10-31T00:58:35.363Z,12.10
2022-10-31T00:59:37.205Z,12.10
2022-10-31T01:00:39.267Z,12.10
2022-10-31T01:01:41.455Z,12.10
2022-10-31T01:02:43.901Z,12.10
2022-10-31T01:03:45.862Z,12.10
2022-10-31T01:04:48.425Z,12.10
2022-10-31T01:06:11.359Z,12.00
2022-10-31T01:07:15.078Z,12.10
2022-10-31T01:08:17.012Z,12.00
2022-10-31T01:09:20.220Z,12.00
2022-10-31T01:10:22.268Z,12.00
2022-10-31T01:11:25.474Z,12.10
2022-10-31T01:12:27.484Z,12.10
2022-10-31T01:13:29.589Z,12.10
2022-10-31T01:14:31.749Z,12.10
2022-10-31T01:15:33.511Z,12.10
2022-10-31T01:16:35.346Z,12.10
2022-10-31T01:17:37.327Z,12.10
2022-10-31T01:18:39.507Z,12.10
2022-10-31T01:19:44.327Z,12.10
2022-10-31T01:20:46.239Z,12.10
2022-10-31T01:21:48.526Z,12.10
2022-10-31T01:22:50.558Z,12.10
2022-10-31T01:23:55.210Z,12.10
2022-10-31T01:24:57.201Z,12.00
2022-10-31T01:26:02.974Z,12.00
2022-10-31T01:27:05.207Z,12.00
2022-10-31T01:28:09.440Z,11.90
2022-10-31T01:29:11.460Z,11.90
2022-10-31T01:30:13.486Z,11.90
2022-10-31T01:31:16.339Z,11.80
2022-10-31T01:32:18.382Z,11.80
2022-10-31T01:33:20.780Z,11.80
2022-10-31T01:34:22.885Z,11.80
2022-10-31T01:35:24.786Z,11.80
2022-10-31T01:36:34.945Z,11.80
2022-10-31T01:37:36.850Z,11.80
2022-10-31T01:38:38.809Z,11.80
2022-10-31T01:39:40.625Z,11.80
2022-10-31T01:40:42.949Z,11.80
2022-10-31T01:41:50.239Z,11.80
2022-10-31T01:42:52.231Z,11.80
2022-10-31T01:43:58.210Z,11.80
2022-10-31T01:45:02.284Z,11.80
2022-10-31T01:46:04.594Z,11.80
2022-10-31T01:47:08.143Z,11.80
2022-10-31T01:48:16.810Z,11.80
2022-10-31T01:49:35.382Z,11.80
2022-10-31T01:50:40.043Z,11.80
2022-10-31T01:51:56.679Z,11.70
2022-10-31T01:53:00.144Z,11.70
2022-10-31T01:54:07.603Z,11.70
2022-10-31T01:55:34.929Z,11.70
2022-10-31T01:56:41.995Z,11.60
2022-10-31T01:57:47.991Z,11.60
2022-10-31T01:58:54.671Z,11.50
2022-10-31T02:00:00.449Z,11.50
2022-10-31T02:01:06.877Z,11.50
2022-10-31T02:02:11.052Z,11.50
2022-10-31T02:03:13.618Z,11.50
2022-10-31T02:04:16.387Z,11.40
2022-10-31T02:05:22.826Z,11.50
2022-10-31T02:06:37.226Z,11.50
2022-10-31T02:07:53.071Z,11.50
2022-10-31T02:08:58.162Z,11.50
2022-10-31T02:10:02.015Z,11.40
2022-10-31T02:11:03.965Z,11.40
2022-10-31T02:12:06.839Z,11.40
2022-10-31T02:13:09.288Z,11.40
2022-10-31T02:14:19.813Z,11.40
2022-10-31T02:15:22.117Z,11.40
2022-10-31T02:16:24.664Z,11.40
2022-10-31T02:17:30.484Z,11.40
2022-10-31T02:18:33.337Z,11.40
2022-10-31T02:20:03.710Z,11.30
2022-10-31T02:21:12.891Z,11.30
2022-10-31T02:22:22.149Z,11.30
2022-10-31T02:24:01.382Z,11.20
2022-10-31T02:25:37.144Z,11.10
2022-10-31T02:26:57.671Z,11.10
2022-10-31T02:28:36.237Z,11.10
2022-10-31T02:29:53.132Z,11.00
2022-10-31T02:31:07.252Z,11.00
2022-10-31T02:32:22.432Z,11.00
2022-10-31T02:33:37.487Z,11.00
2022-10-31T02:35:11.069Z,11.00
2022-10-31T02:36:29.151Z,11.00
2022-10-31T02:37:46.592Z,10.90
2022-10-31T02:39:09.890Z,10.90
2022-10-31T02:40:40.983Z,10.90
2022-10-31T02:42:08.982Z,10.80
2022-10-31T02:43:36.971Z,10.80
2022-10-31T02:45:05.714Z,10.80
2022-10-31T02:46:19.623Z,10.80
2022-10-31T02:47:29.319Z,10.70
2022-10-31T02:48:33.909Z,10.70
2022-10-31T02:49:40.826Z,10.70
2022-10-31T02:50:52.499Z,10.70
2022-10-31T02:51:55.260Z,10.70
2022-10-31T02:52:57.273Z,10.70
2022-10-31T02:54:01.325Z,10.70
2022-10-31T02:55:27.624Z,10.70
2022-10-31T02:56:33.344Z,10.70
2022-10-31T02:57:37.951Z,10.70
2022-10-31T02:58:48.863Z,10.70
2022-10-31T02:59:55.501Z,10.70
2022-10-31T03:01:19.303Z,10.70
2022-10-31T03:02:21.521Z,10.70
2022-10-31T03:03:37.829Z,10.70
2022-10-31T03:04:43.479Z,10.70
2022-10-31T03:06:15.920Z,10.70
2022-10-31T03:07:36.409Z,10.60
2022-10-31T03:09:06.358Z,10.60
2022-10-31T03:10:24.560Z,10.60
2022-10-31T03:11:39.057Z,10.60
2022-10-31T03:13:04.320Z,10.50
2022-10-31T03:14:13.005Z,10.50
2022-10-31T03:15:29.911Z,10.50
2022-10-31T03:16:50.784Z,10.50
2022-10-31T03:17:58.646Z,10.50
2022-10-31T03:19:06.675Z,10.50
2022-10-31T03:20:12.014Z,10.50
2022-10-31T03:21:44.870Z,10.50
2022-10-31T03:22:48.084Z,10.50
2022-10-31T03:23:52.607Z,10.50
2022-10-31T03:24:57.100Z,10.50
2022-10-31T03:26:01.962Z,10.50
2022-10-31T03:27:07.475Z,10.50
2022-10-31T03:28:13.308Z,10.50
2022-10-31T03:29:18.491Z,10.50
2022-10-31T03:30:21.426Z,10.50
2022-10-31T03:31:35.145Z,10.50
2022-10-31T03:32:55.459Z,10.50
2022-10-31T03:34:00.867Z,10.50
2022-10-31T03:35:08.511Z,10.50
2022-10-31T03:36:14.174Z,10.40
2022-10-31T03:37:20.203Z,10.40
2022-10-31T03:38:23.383Z,10.40
2022-10-31T03:39:27.139Z,10.40
2022-10-31T03:40:30.192Z,10.40
2022-10-31T03:41:37.428Z,10.40
2022-10-31T03:42:44.311Z,10.40
2022-10-31T03:43:54.054Z,10.40
2022-10-31T03:45:21.354Z,10.40
2022-10-31T03:46:23.694Z,10.40
2022-10-31T03:47:26.432Z,10.40
2022-10-31T03:48:28.947Z,10.40
2022-10-31T03:49:32.559Z,10.40
2022-10-31T03:50:50.319Z,10.40
2022-10-31T03:52:16.393Z,10.50
2022-10-31T03:53:27.805Z,10.50
2022-10-31T03:54:55.716Z,10.40
2022-10-31T03:56:07.353Z,10.40
2022-10-31T03:57:15.583Z,10.40
2022-10-31T03:58:38.460Z,10.40
2022-10-31T03:59:46.162Z,10.40
2022-10-31T04:00:53.595Z,10.30
2022-10-31T04:02:00.394Z,10.30
2022-10-31T04:03:10.333Z,10.30
2022-10-31T04:04:14.550Z,10.30
2022-10-31T04:05:19.042Z,10.30
2022-10-31T04:06:24.101Z,10.30
2022-10-31T04:07:30.992Z,10.20
2022-10-31T04:08:37.894Z,10.20
2022-10-31T04:09:43.443Z,10.20
2022-10-31T04:10:49.445Z,10.20
2022-10-31T04:11:56.476Z,10.20
2022-10-31T04:14:26.947Z,10.20
2022-10-31T04:15:30.460Z,10.20
2022-10-31T04:16:34.224Z,10.20
2022-10-31T04:17:41.401Z,10.20
2022-10-31T04:18:43.342Z,10.20
2022-10-31T04:19:46.172Z,10.20
2022-10-31T04:20:50.959Z,10.20
2022-10-31T04:21:53.065Z,10.20
2022-10-31T04:22:55.710Z,10.20
2022-10-31T04:23:58.500Z,10.20
2022-10-31T04:25:03.140Z,10.20
2022-10-31T04:26:05.302Z,10.20
2022-10-31T04:27:07.835Z,10.20
2022-10-31T04:28:09.821Z,10.20
2022-10-31T04:29:11.708Z,10.20
2022-10-31T04:30:14.076Z,10.20
2022-10-31T04:31:17.056Z,10.30
2022-10-31T04:32:20.871Z,10.30
2022-10-31T04:33:22.818Z,10.30
2022-10-31T04:34:25.025Z,10.30
2022-10-31T04:35:27.777Z,10.30
2022-10-31T04:36:30.002Z,10.30
2022-10-31T04:37:33.611Z,10.30
2022-10-31T04:38:38.184Z,10.30
2022-10-31T04:39:48.337Z,10.30
2022-10-31T04:41:25.630Z,10.20
2022-10-31T04:42:37.133Z,10.20
2022-10-31T04:43:41.066Z,10.20
2022-10-31T04:44:43.108Z,10.20
2022-10-31T04:45:45.313Z,10.20
2022-10-31T04:46:48.549Z,10.20
2022-10-31T04:47:50.544Z,10.20
2022-10-31T04:48:54.758Z,10.20
2022-10-31T04:49:56.601Z,10.20
2022-10-31T04:51:01.877Z,10.20
2022-10-31T04:52:04.236Z,10.20
2022-10-31T04:53:06.472Z,10.20
2022-10-31T04:54:14.795Z,10.10
2022-10-31T04:55:22.576Z,10.20
2022-10-31T04:56:43.119Z,10.10
2022-10-31T04:57:51.819Z,10.20
2022-10-31T04:58:54.666Z,10.10
2022-10-31T04:59:57.797Z,10.10
2022-10-31T05:01:00.319Z,10.20
2022-10-31T05:02:02.246Z,10.10
2022-10-31T05:03:17.973Z,10.10
2022-10-31T05:04:19.891Z,10.10
2022-10-31T05:05:28.117Z,10.10
2022-10-31T05:06:30.294Z,10.10
2022-10-31T05:07:32.973Z,10.10
2022-10-31T05:08:35.107Z,10.10
2022-10-31T05:09:39.914Z,10.10
2022-10-31T05:10:42.155Z,10.10
2022-10-31T05:11:44.548Z,10.10
2022-10-31T05:13:18.706Z,10.10
2022-10-31T05:14:40.047Z,10.10
2022-10-31T05:16:15.695Z,10.10
2022-10-31T05:17:36.991Z,10.00
2022-10-31T05:19:08.184Z,10.00
2022-10-31T05:20:37.051Z,10.00
2022-10-31T05:21:51.563Z,10.00
2022-10-31T05:22:56.760Z,10.00
2022-10-31T05:23:58.821Z,10.00
2022-10-31T05:25:00.915Z,10.00
2022-10-31T05:26:02.786Z,10.00
2022-10-31T05:27:04.796Z,10.10
2022-10-31T05:28:06.692Z,10.10
2022-10-31T05:29:08.852Z,10.10
2022-10-31T05:30:13.981Z,10.10
2022-10-31T05:31:19.700Z,10.10
2022-10-31T05:32:21.713Z,10.10
2022-10-31T05:33:58.425Z,10.10
2022-10-31T05:35:33.874Z,10.10
2022-10-31T05:37:03.591Z,10.10
2022-10-31T05:38:06.717Z,10.10
2022-10-31T05:39:09.100Z,10.10
2022-10-31T05:40:17.459Z,10.10
2022-10-31T05:41:19.279Z,10.10
2022-10-31T05:42:22.851Z,10.20
2022-10-31T05:43:25.577Z,10.20
2022-10-31T05:44:28.309Z,10.20
2022-10-31T05:45:55.383Z,10.20
2022-10-31T05:47:15.882Z,10.20
2022-10-31T05:48:35.960Z,10.20
2022-10-31T05:50:04.680Z,10.20
2022-10-31T05:51:23.573Z,10.20
2022-10-31T05:52:26.357Z,10.20
2022-10-31T05:53:36.002Z,10.20
2022-10-31T05:54:37.957Z,10.20
2022-10-31T05:55:41.672Z,10.30
2022-10-31T05:56:47.497Z,10.30
2022-10-31T05:57:49.758Z,10.30
2022-10-31T05:58:52.194Z,10.30
2022-10-31T05:59:55.201Z,10.30
2022-10-31T06:00:59.226Z,10.30
2022-10-31T06:02:01.220Z,10.30
2022-10-31T06:03:21.697Z,10.30
2022-10-31T06:04:27.960Z,10.40
2022-10-31T06:05:30.470Z,10.40
2022-10-31T06:06:32.523Z,10.40
2022-10-31T06:07:36.023Z,10.40
2022-10-31T06:08:38.745Z,10.40
2022-10-31T06:09:45.628Z,10.40
2022-10-31T06:10:47.538Z,10.40
2022-10-31T06:11:53.042Z,10.40
2022-10-31T06:13:01.056Z,10.40
2022-10-31T06:14:21.142Z,10.40
2022-10-31T06:15:29.046Z,10.40
2022-10-31T06:16:31.916Z,10.50
2022-10-31T06:17:43.398Z,10.40
2022-10-31T06:18:58.299Z,10.50
2022-10-31T06:20:00.480Z,10.50
2022-10-31T06:21:02.888Z,10.50
2022-10-31T06:22:04.743Z,10.50
2022-10-31T06:23:08.223Z,10.50
2022-10-31T06:24:10.398Z,10.50
2022-10-31T06:25:35.915Z,10.60
2022-10-31T06:26:39.861Z,10.60
2022-10-31T06:27:42.699Z,10.60
2022-10-31T06:28:49.260Z,10.60
2022-10-31T06:30:20.789Z,10.60
2022-10-31T06:31:22.754Z,10.60
2022-10-31T06:32:24.849Z,10.60
2022-10-31T06:33:26.839Z,10.70
2022-10-31T06:34:31.956Z,10.70
2022-10-31T06:35:34.225Z,10.70
2022-10-31T06:36:36.368Z,10.70
2022-10-31T06:37:39.729Z,10.80
2022-10-31T06:38:59.140Z,10.80
2022-10-31T06:40:02.236Z,10.80
2022-10-31T06:41:08.496Z,10.80
2022-10-31T06:42:23.461Z,10.80
2022-10-31T06:43:25.616Z,10.80
2022-10-31T06:44:42.605Z,10.80
2022-10-31T06:46:16.986Z,10.80
2022-10-31T06:47:30.340Z,10.80
2022-10-31T06:48:53.511Z,10.80
2022-10-31T06:50:02.673Z,10.80
2022-10-31T06:51:04.670Z,10.80
2022-10-31T06:52:07.717Z,10.90
2022-10-31T06:54:12.522Z,10.90
2022-10-31T06:55:14.763Z,10.90
2022-10-31T06:56:16.561Z,11.00
2022-10-31T06:57:23.671Z,10.90
2022-10-31T06:58:25.615Z,11.00
2022-10-31T06:59:30.935Z,11.00
2022-10-31T07:01:02.677Z,11.00
2022-10-31T07:02:05.153Z,11.00
2022-10-31T07:03:12.662Z,11.00
2022-10-31T07:04:14.833Z,11.10
2022-10-31T07:05:16.783Z,11.10
2022-10-31T07:06:18.731Z,11.10
2022-10-31T07:07:22.675Z,11.10
2022-10-31T07:08:26.277Z,11.20
2022-10-31T07:09:28.320Z,11.20
2022-10-31T07:10:37.460Z,11.20
2022-10-31T07:11:43.084Z,11.30
2022-10-31T07:12:45.088Z,11.30
2022-10-31T07:13:46.876Z,11.30
2022-10-31T07:14:48.710Z,11.30
2022-10-31T07:15:50.463Z,11.30
2022-10-31T07:16:52.593Z,11.30
2022-10-31T07:18:04.785Z,11.30
2022-10-31T07:19:06.816Z,11.30
2022-10-31T07:20:09.752Z,11.30
2022-10-31T07:21:12.515Z,11.40
2022-10-31T07:22:15.491Z,11.40
2022-10-31T07:23:19.559Z,11.40
2022-10-31T07:24:29.046Z,11.40
2022-10-31T07:25:33.756Z,11.40
2022-10-31T07:26:40.782Z,11.40
2022-10-31T07:27:44.265Z,11.50
2022-10-31T07:28:49.156Z,11.50
2022-10-31T07:29:54.282Z,11.50
2022-10-31T07:30:58.434Z,11.50
2022-10-31T07:32:00.318Z,11.50
2022-10-31T07:33:06.299Z,11.60
2022-10-31T07:34:27.008Z,11.60
2022-10-31T07:36:04.625Z,11.60
2022-10-31T07:37:07.759Z,11.60
2022-10-31T07:38:13.246Z,11.60
2022-10-31T07:39:15.166Z,11.60
2022-10-31T07:40:19.187Z,11.60
2022-10-31T07:41:22.445Z,11.60
2022-10-31T07:42:24.531Z,11.70
2022-10-31T07:45:30.074Z,11.70
2022-10-31T07:47:04.277Z,11.70
2022-10-31T07:48:24.656Z,11.70
2022-10-31T07:53:11.338Z,11.70
2022-10-31T07:54:30.866Z,11.70
2022-10-31T07:55:33.498Z,11.70
2022-10-31T07:56:35.358Z,11.80
2022-10-31T07:57:37.878Z,11.80
2022-10-31T07:58:39.705Z,11.80
2022-10-31T07:59:41.615Z,11.90
2022-10-31T08:00:46.058Z,11.90
2022-10-31T08:01:51.193Z,11.90
2022-10-31T08:03:15.767Z,12.00
2022-10-31T08:04:38.376Z,12.00
2022-10-31T08:05:59.412Z,12.00
2022-10-31T08:07:01.330Z,12.10
2022-10-31T08:08:10.118Z,12.10
2022-10-31T08:09:13.106Z,12.10
2022-10-31T08:10:15.726Z,12.10
2022-10-31T08:11:17.520Z,12.20
2022-10-31T08:12:19.944Z,12.20
2022-10-31T08:13:22.166Z,12.20
2022-10-31T08:14:27.656Z,12.20
2022-10-31T08:15:32.181Z,12.20
2022-10-31T08:16:34.108Z,12.30
2022-10-31T08:17:41.408Z,12.30
2022-10-31T08:18:45.935Z,12.30
2022-10-31T08:19:50.481Z,12.40
2022-10-31T08:20:55.094Z,12.40
2022-10-31T08:21:56.926Z,12.50
2022-10-31T08:23:01.736Z,12.50
2022-10-31T08:24:03.816Z,12.60
2022-10-31T08:25:06.114Z,12.60
2022-10-31T08:26:08.592Z,12.60
2022-10-31T08:27:10.525Z,12.70
2022-10-31T08:28:15.195Z,12.70
2022-10-31T08:29:19.036Z,12.80
2022-10-31T08:30:27.584Z,12.80
2022-10-31T08:31:49.414Z,12.80
2022-10-31T08:33:15.567Z,12.90
2022-10-31T08:34:36.150Z,12.90
2022-10-31T08:35:59.147Z,12.90
2022-10-31T08:37:20.981Z,12.90
2022-10-31T08:38:28.155Z,12.90
2022-10-31T08:39:30.492Z,12.90
2022-10-31T08:40:36.557Z,12.90
2022-10-31T08:41:38.754Z,12.90
2022-10-31T08:42:45.143Z,13.00
2022-10-31T08:43:47.777Z,13.00
2022-10-31T08:44:50.933Z,13.00
2022-10-31T08:45:56.229Z,13.00
2022-10-31T08:47:03.403Z,13.10
2022-10-31T08:48:12.254Z,13.10
2022-10-31T08:49:14.911Z,13.20
2022-10-31T08:50:19.064Z,13.20
2022-10-31T08:51:22.301Z,13.30
2022-10-31T08:52:51.131Z,13.30
2022-10-31T08:53:49.573Z,13.30
2022-10-31T08:55:09.551Z,13.30
2022-10-31T08:56:37.342Z,13.40
2022-10-31T08:57:47.214Z,13.40
2022-10-31T08:58:49.263Z,13.50
2022-10-31T08:59:52.460Z,13.50
2022-10-31T09:01:26.548Z,13.50
2022-10-31T09:02:28.765Z,13.60
2022-10-31T09:03:36.197Z,13.60
2022-10-31T09:04:39.955Z,13.70
2022-10-31T09:05:42.312Z,13.70
2022-10-31T09:07:07.855Z,13.70
2022-10-31T09:08:15.661Z,13.80
2022-10-31T09:09:18.838Z,13.80
2022-10-31T09:10:21.652Z,13.80
2022-10-31T09:11:23.765Z,13.80
2022-10-31T09:12:45.032Z,13.90
2022-10-31T09:14:05.807Z,14.00
2022-10-31T09:15:27.814Z,14.00
2022-10-31T09:16:55.327Z,14.00
2022-10-31T09:18:04.886Z,14.00
2022-10-31T09:19:14.800Z,14.10
2022-10-31T09:20:21.903Z,14.10
2022-10-31T09:21:26.697Z,14.10
2022-10-31T09:22:28.851Z,14.10
2022-10-31T09:23:31.065Z,14.10
2022-10-31T09:24:34.907Z,14.10
2022-10-31T09:25:39.059Z,14.10
2022-10-31T09:27:03.769Z,14.10
2022-10-31T09:28:08.735Z,14.10
2022-10-31T09:29:10.779Z,14.20
2022-10-31T09:30:14.026Z,14.20
2022-10-31T09:31:16.116Z,14.20
2022-10-31T09:32:30.988Z,14.20
2022-10-31T09:33:33.201Z,14.30
2022-10-31T09:34:54.504Z,14.30
2022-10-31T09:35:59.528Z,14.30
2022-10-31T09:37:01.518Z,14.30
2022-10-31T09:38:09.636Z,14.30
2022-10-31T09:39:11.453Z,14.40
2022-10-31T09:40:13.990Z,14.50
2022-10-31T09:41:32.360Z,14.50
2022-10-31T09:42:46.938Z,14.60
2022-10-31T09:44:08.912Z,14.60
2022-10-31T09:45:26.179Z,14.70
2022-10-31T09:46:42.315Z,14.70
2022-10-31T09:47:49.849Z,14.70
2022-10-31T09:50:04.007Z,14.80
2022-10-31T09:51:11.747Z,14.80
2022-10-31T09:52:28.300Z,14.90
2022-10-31T09:53:33.464Z,14.90
2022-10-31T09:54:48.511Z,15.00
2022-10-31T09:55:52.027Z,15.10
2022-10-31T09:56:54.569Z,15.10
2022-10-31T09:57:57.258Z,15.20
2022-10-31T09:59:03.804Z,15.30
2022-10-31T10:00:16.348Z,15.30
2022-10-31T10:01:26.943Z,15.30
2022-10-31T10:02:42.906Z,15.40
2022-10-31T10:03:48.124Z,15.40
2022-10-31T10:05:42.755Z,15.50
2022-10-31T10:06:53.070Z,15.50
2022-10-31T10:08:20.536Z,15.50
2022-10-31T10:09:54.422Z,15.60
2022-10-31T10:11:31.098Z,15.60
2022-10-31T10:13:06.427Z,15.70
2022-10-31T10:14:29.675Z,15.70
2022-10-31T10:15:31.462Z,15.80
2022-10-31T10:16:53.525Z,15.80
2022-10-31T10:18:18.571Z,15.80
2022-10-31T10:19:50.004Z,15.80
2022-10-31T10:21:07.451Z,15.90
2022-10-31T10:22:25.207Z,15.90
2022-10-31T10:23:36.991Z,15.90
2022-10-31T10:25:16.090Z,15.90
2022-10-31T10:26:20.881Z,15.90
2022-10-31T10:27:43.027Z,15.90
2022-10-31T10:29:04.942Z,15.90
2022-10-31T10:30:16.161Z,15.90
2022-10-31T10:31:28.677Z,15.90
2022-10-31T10:32:36.394Z,15.90
2022-10-31T10:34:07.041Z,15.90
2022-10-31T10:35:20.084Z,15.90
2022-10-31T10:36:29.219Z,15.90
2022-10-31T10:37:42.211Z,15.90
2022-10-31T10:38:47.124Z,15.90
2022-10-31T10:39:53.991Z,15.90
2022-10-31T10:40:56.297Z,16.00
2022-10-31T10:42:18.437Z,16.00
2022-10-31T10:43:20.343Z,16.00
2022-10-31T10:44:22.225Z,16.00
2022-10-31T10:45:42.393Z,16.00
2022-10-31T10:47:14.903Z,16.00
2022-10-31T10:48:29.140Z,16.10
2022-10-31T10:49:53.979Z,16.10
2022-10-31T10:50:55.815Z,16.10
2022-10-31T10:52:19.322Z,16.10
2022-10-31T10:54:07.842Z,16.20
2022-10-31T10:55:29.767Z,16.20
2022-10-31T10:56:53.239Z,16.30
2022-10-31T10:58:18.818Z,16.30
2022-10-31T10:59:23.267Z,16.30
2022-10-31T11:00:42.574Z,16.30
2022-10-31T11:01:45.305Z,16.40
2022-10-31T11:02:49.131Z,16.40
2022-10-31T11:03:51.467Z,16.40
2022-10-31T11:05:00.663Z,16.40
2022-10-31T11:06:03.166Z,16.40
2022-10-31T11:07:10.920Z,16.40
2022-10-31T11:08:27.380Z,16.40
2022-10-31T11:09:29.802Z,16.40
2022-10-31T11:10:32.103Z,16.40
2022-10-31T11:11:34.066Z,16.40
2022-10-31T11:12:35.843Z,16.40
2022-10-31T11:13:41.137Z,16.40
2022-10-31T11:15:17.852Z,16.40
2022-10-31T11:16:28.710Z,16.40
2022-10-31T11:17:33.171Z,16.40
2022-10-31T11:18:47.872Z,16.40
2022-10-31T11:19:59.997Z,16.50
2022-10-31T11:21:05.370Z,16.50
2022-10-31T11:22:17.559Z,16.50
2022-10-31T11:23:21.511Z,16.50
2022-10-31T11:24:28.497Z,16.50
2022-10-31T11:25:30.349Z,16.50
2022-10-31T11:26:32.461Z,16.50
2022-10-31T11:27:34.308Z,16.50
2022-10-31T11:28:36.213Z,16.60
2022-10-31T11:29:38.203Z,16.50
2022-10-31T11:30:58.127Z,16.60
2022-10-31T11:32:01.898Z,16.60
2022-10-31T11:33:05.036Z,16.60
2022-10-31T11:34:16.059Z,16.60
2022-10-31T11:35:20.029Z,16.60
2022-10-31T11:36:44.030Z,16.60
2022-10-31T11:37:47.788Z,16.60
2022-10-31T11:38:50.374Z,16.60
2022-10-31T11:39:59.241Z,16.70
2022-10-31T11:41:07.130Z,16.60
2022-10-31T11:42:09.326Z,16.70
2022-10-31T11:43:18.588Z,16.70
2022-10-31T11:44:28.483Z,16.70
2022-10-31T11:45:34.745Z,16.60
2022-10-31T11:46:55.497Z,16.60
2022-10-31T11:48:00.055Z,16.60
2022-10-31T11:49:03.781Z,16.60
2022-10-31T11:50:12.998Z,16.50
2022-10-31T11:51:26.741Z,16.60
2022-10-31T11:52:33.435Z,16.60
2022-10-31T11:53:36.068Z,16.60
2022-10-31T11:54:59.392Z,16.50
2022-10-31T11:56:13.362Z,16.50
2022-10-31T11:57:27.116Z,16.50
2022-10-31T11:58:29.049Z,16.50
2022-10-31T11:59:32.552Z,16.50
2022-10-31T12:00:38.930Z,16.50
2022-10-31T12:01:47.268Z,16.50
2022-10-31T12:02:49.383Z,16.50
2022-10-31T12:04:03.521Z,16.50
2022-10-31T12:05:19.091Z,16.50
2022-10-31T12:06:30.484Z,16.50
2022-10-31T12:07:32.488Z,16.50
2022-10-31T12:08:38.742Z,16.50
2022-10-31T12:09:42.166Z,16.40
2022-10-31T12:11:04.189Z,16.40
2022-10-31T12:12:30.716Z,16.40
2022-10-31T12:13:49.376Z,16.40
2022-10-31T12:15:16.661Z,16.40
2022-10-31T12:16:57.025Z,16.40
2022-10-31T12:18:01.832Z,16.50
2022-10-31T12:19:21.173Z,16.50
2022-10-31T12:20:42.737Z,16.50
2022-10-31T12:21:54.322Z,16.60
2022-10-31T12:23:19.079Z,16.60
2022-10-31T12:24:32.582Z,16.60
2022-10-31T12:26:11.498Z,16.70
2022-10-31T12:27:18.451Z,16.80
2022-10-31T12:28:56.806Z,16.80
2022-10-31T12:30:19.525Z,16.80
2022-10-31T12:31:48.044Z,16.80
2022-10-31T12:32:55.606Z,16.90
2022-10-31T12:34:16.203Z,16.80
2022-10-31T12:36:01.375Z,16.90
2022-10-31T12:37:17.870Z,16.90
2022-10-31T12:38:55.554Z,16.90
2022-10-31T12:40:22.148Z,17.00
2022-10-31T12:41:49.376Z,17.00
2022-10-31T12:43:24.368Z,17.00
2022-10-31T12:45:01.634Z,17.10
2022-10-31T12:46:26.814Z,17.10
2022-10-31T12:47:50.729Z,17.10
2022-10-31T12:49:07.162Z,17.10
2022-10-31T12:50:15.493Z,17.10
2022-10-31T12:51:47.168Z,17.10
2022-10-31T12:53:13.966Z,17.10
2022-10-31T12:54:47.924Z,17.10
2022-10-31T12:56:06.371Z,17.10
2022-10-31T12:57:24.965Z,17.10
2022-10-31T12:58:46.718Z,17.10
2022-10-31T13:00:15.208Z,17.10
2022-10-31T13:01:18.702Z,17.10
2022-10-31T13:02:45.390Z,17.10
2022-10-31T13:03:47.392Z,17.10
2022-10-31T13:05:12.200Z,17.10
2022-10-31T13:06:30.559Z,17.10
2022-10-31T13:07:44.859Z,17.10
2022-10-31T13:08:52.153Z,17.10
2022-10-31T13:10:06.997Z,17.10
2022-10-31T13:11:20.779Z,17.10
2022-10-31T13:12:25.300Z,17.10
2022-10-31T13:13:40.824Z,17.10
2022-10-31T13:14:55.762Z,17.10
2022-10-31T13:16:03.686Z,17.10
2022-10-31T13:17:06.417Z,17.10
2022-10-31T13:18:33.092Z,17.00
2022-10-31T13:19:41.254Z,17.00
2022-10-31T13:20:51.494Z,17.00
2022-10-31T13:22:02.035Z,17.00
2022-10-31T13:23:29.903Z,17.00
2022-10-31T13:24:49.845Z,17.10
2022-10-31T13:25:57.892Z,17.10
2022-10-31T13:27:04.003Z,17.10
2022-10-31T13:28:27.595Z,17.10
2022-10-31T13:29:56.424Z,17.10
2022-10-31T13:30:58.356Z,17.10
2022-10-31T13:32:06.013Z,17.20
2022-10-31T13:33:17.316Z,17.20
2022-10-31T13:34:31.501Z,17.30
2022-10-31T13:35:56.296Z,17.40
2022-10-31T13:37:06.575Z,17.40
2022-10-31T13:38:51.830Z,17.40
2022-10-31T13:40:23.268Z,17.40
2022-10-31T13:42:14.473Z,17.40
2022-10-31T13:44:03.062Z,17.50
2022-10-31T13:45:16.742Z,17.50
2022-10-31T13:46:44.178Z,17.50
2022-10-31T13:48:14.741Z,17.50
2022-10-31T13:49:31.946Z,17.50
2022-10-31T13:50:34.366Z,17.50
2022-10-31T13:51:36.346Z,17.50
2022-10-31T13:52:39.082Z,17.50
2022-10-31T13:53:45.986Z,17.50
2022-10-31T13:54:56.793Z,17.50
2022-10-31T13:56:21.537Z,17.50
2022-10-31T13:57:34.734Z,17.50
2022-10-31T13:58:37.849Z,17.50
2022-10-31T13:59:40.137Z,17.50
2022-10-31T14:00:42.750Z,17.50
2022-10-31T14:01:52.563Z,17.40
2022-10-31T14:02:58.054Z,17.50
2022-10-31T14:04:19.279Z,17.50
2022-10-31T14:05:35.469Z,17.50
2022-10-31T14:07:07.736Z,17.50
2022-10-31T14:08:21.608Z,17.40
2022-10-31T14:09:40.005Z,17.40
2022-10-31T14:10:49.429Z,17.40
2022-10-31T14:11:52.282Z,17.40
2022-10-31T14:13:04.708Z,17.40
2022-10-31T14:14:13.555Z,17.40
2022-10-31T14:15:25.927Z,17.40
2022-10-31T14:16:32.827Z,17.40
2022-10-31T14:18:03.388Z,17.30
2022-10-31T14:19:15.144Z,17.40
2022-10-31T14:20:17.128Z,17.30
2022-10-31T14:21:25.349Z,17.30
2022-10-31T14:22:32.622Z,17.30
2022-10-31T14:23:43.388Z,17.30
2022-10-31T14:24:45.291Z,17.30
2022-10-31T14:25:47.042Z,17.30
2022-10-31T14:26:54.641Z,17.30
2022-10-31T14:27:58.339Z,17.30
2022-10-31T14:29:01.766Z,17.30
2022-10-31T14:30:17.248Z,17.30
2022-10-31T14:31:37.442Z,17.20
2022-10-31T14:32:39.339Z,17.20
2022-10-31T14:33:43.552Z,17.20
2022-10-31T14:34:51.218Z,17.20
2022-10-31T14:36:08.081Z,17.20
2022-10-31T14:37:39.503Z,17.20
2022-10-31T14:39:20.160Z,17.20
2022-10-31T14:40:40.723Z,17.10
2022-10-31T14:41:42.495Z,17.10
2022-10-31T14:43:17.390Z,17.10
2022-10-31T14:44:41.649Z,17.10
2022-10-31T14:46:04.614Z,17.10
2022-10-31T14:47:42.066Z,17.10
2022-10-31T14:49:03.959Z,17.10
2022-10-31T14:50:29.076Z,17.10
2022-10-31T14:51:40.596Z,17.10
2022-10-31T14:52:50.498Z,17.10
2022-10-31T14:53:57.236Z,17.00
2022-10-31T14:55:01.721Z,17.00
2022-10-31T14:56:06.844Z,17.00
2022-10-31T14:57:19.990Z,17.00
2022-10-31T14:58:39.475Z,17.00
2022-10-31T14:59:48.033Z,17.00
2022-10-31T15:00:55.268Z,17.00
2022-10-31T15:02:00.832Z,17.00
2022-10-31T15:03:13.297Z,17.00
2022-10-31T15:04:24.594Z,16.90
2022-10-31T15:05:28.518Z,16.90
2022-10-31T15:06:49.960Z,16.90
2022-10-31T15:07:59.368Z,16.90
2022-10-31T15:09:01.139Z,16.90
2022-10-31T15:10:07.288Z,16.90
2022-10-31T15:11:23.074Z,16.90
2022-10-31T15:12:31.038Z,16.90